Manchester Airport

CityManchester
CountryGB
Latitude53.35369873
Longitude-2.274950027
IATA CodeMAN
ICAO CodeEGCC

Websites

No websites found for this airport.

do you run a website about this airport?
Let's exchange links!




Maps generated by the Great Circle Mapper  copyright © Karl L. Swartz.
Go PREMIUM to remove Ads

Recent Visitors


Date Reg Aircraft Spotted By
20/08/2019 N350AN 767-323(ER)(WL) (American Airlines) Hitman69
20/08/2019 SE-RMC Challenger 300- (Svenkst Industriflyg AB) Hitman69
20/08/2019 OE-GEC Learjet 75 (Speedwings Executive Jet GmbH) Hitman69
20/08/2019 EI-SID A320-251N(WL) (SAS Scandinavian Airlines Ireland) Hitman69
20/08/2019 EI-EBF 737-8AS(WL) (Ryanair) Hitman69
20/08/2019 TC-JOM A330-302 (Turkish Airlines) Hitman69
20/08/2019 EI-SII A320-251N(WL) (SAS Scandinavian Airlines Ireland) Hitman69
20/08/2019 9H-AEN A320-214 (Air Malta) Hitman69
20/08/2019 C-GEOQ 767-375(ER) (Air Canada Rouge) Hitman69
20/08/2019 G-UZHX A320-251N(WL) (easyJet) Hitman69
20/08/2019 G-EUOI A319-131 (British Airways) Hitman69
20/08/2019 EI-GDI 737-800(WL) (Ryanair) Hitman69
20/08/2019 A6-EDJ A380-861 (Emirates) Hitman69
20/08/2019 OE-LWC ERJ-195LR (ERJ-190-200 LR) (Austrian Airlines) Hitman69
20/08/2019 4X-EKS 737-8HX(WL) (El Al Israel Airlines) Hitman69
20/08/2019 TC-CPD 737-82R(WL) (Pegasus) Hitman69
20/08/2019 EI-SIA A320-251N(WL) (SAS Scandinavian Airlines Ireland) Hitman69
20/08/2019 OY-JJG Dornier 328 JET-310 (SUN-Air of Scandinavia) Hitman69
20/08/2019 A6-ETD 777-3FX(ER) (Etihad Airways) Hitman69
20/08/2019 F-GSTA A300B4-608ST Beluga (Airbus Industrie) Hitman69
20/08/2019 EI-GXK 737-800(WL) (Ryanair) Hitman69
20/08/2019 A7-AME A350-941 (Qatar Airways) Tristardelta
20/08/2019 B-LXE A350-1041 (Cathay Pacific Airways) Tristardelta
20/08/2019 SE-RMC Challenger 300 (Svenkst Industriflyg AB) Tristardelta
20/08/2019 EI-EBF 737-8AS(WL) (Ryanair) Tristardelta
20/08/2019 G-TCVB A321-231(WL) (Thomas Cook Airlines) Tristardelta
20/08/2019 G-TUIJ 787-9 Dreamliner (TUI Airways) Tristardelta
20/08/2019 PH-EZX ERJ-190-STD (ERJ-190-100) (KLM Cityhopper) Tristardelta
20/08/2019 C-GEOQ 767-375(ER) (Air Canada Rouge) Tristardelta
20/08/2019 B-304L A330-343 (Hainan Airlines) Tristardelta
20/08/2019 N917FD 757-23A (Federal Express (FedEx)) Tristardelta
20/08/2019 9H-AEN A320-214 (Air Malta) Tristardelta
20/08/2019 N350AN 767-323(ER)(WL) (American Airlines) Tristardelta
20/08/2019 OE-IVK A320-214 (easyJet Europe) Hitman69
20/08/2019 G-FLBE DHC-8-402Q (Flybe) Hitman69
20/08/2019 EI-FRK 737-8AS(WL) (Ryanair) Hitman69
20/08/2019 EI-DEB A320-214 (Aer Lingus) Hitman69
20/08/2019 G-FBEI ERJ-195LR (ERJ-190-200 LR) (Flybe) Hitman69
20/08/2019 EI-FZK 737-800(WL) (Ryanair) Hitman69
20/08/2019 F-HBLL ERJ-190STD (ERJ-190-100) (HOP!) Hitman69
20/08/2019 G-HUET ATR 42-500 (Aurigny Air Services) Hitman69
20/08/2019 EC-NBA A320-271N(WL) (Vueling) Hitman69
20/08/2019 PH-EZB ERJ-190-STD (ERJ-190-100) (KLM Cityhopper) Hitman69
20/08/2019 PH-BXE 737-8K2(WL) (KLM Royal Dutch Airlines) Hitman69
20/08/2019 EI-FZK 737-800(WL) (Ryanair) Sdbail
20/08/2019 G-UZHE A320-251N(WL) (easyJet) Ant79
20/08/2019 G-TCDP A321-211(WL) (Thomas Cook Airlines) Ant79